Time;durP1;ratioP1;P1;durP2;ratioP2;P2;SDS_P1;SDS_P2;PMS_P1;PMS_P2;Temp;Humidity;BMP_temperature;BMP_pressure;BME280_temperature;BME280_humidity;BME280_pressure;Samples;Min_cycle;Max_cycle;Signal;HPM_P1;HPM_P2
2023/01/18 00:02:09;;;;;;;13.80;9.80;;;2.40;99.90;;;;;;5054624;28;20489;-54
2023/01/18 00:04:37;;;;;;;16.37;9.70;;;2.50;99.90;;;;;;5054347;28;20469;-53
2023/01/18 00:07:05;;;;;;;9.80;8.87;;;2.50;99.90;;;;;;5054222;28;20452;-53
2023/01/18 00:09:32;;;;;;;12.63;8.70;;;2.50;99.90;;;;;;5054318;28;20442;-53
2023/01/18 00:11:59;;;;;;;12.43;10.43;;;2.50;99.90;;;;;;5054160;28;20449;-53
2023/01/18 00:14:26;;;;;;;11.10;9.07;;;2.60;99.90;;;;;;5054472;28;20465;-54
2023/01/18 00:16:53;;;;;;;10.30;9.20;;;2.60;99.90;;;;;;5054272;28;20464;-53
2023/01/18 00:19:20;;;;;;;8.93;7.57;;;2.60;99.90;;;;;;5053986;28;21014;-52
2023/01/18 00:21:53;;;;;;;10.40;9.30;;;2.60;99.90;;;;;;5054277;28;20445;-54
2023/01/18 00:24:22;;;;;;;9.23;8.40;;;2.20;99.90;;;;;;5053922;28;20485;-53
2023/01/18 00:26:49;;;;;;;10.63;8.93;;;2.20;99.90;;;;;;5054186;28;20449;-52
2023/01/18 00:29:17;;;;;;;11.67;10.47;;;2.20;99.90;;;;;;5054249;28;20455;-55
2023/01/18 00:31:44;;;;;;;12.83;9.73;;;2.30;99.90;;;;;;5053860;28;20445;-54
2023/01/18 00:34:11;;;;;;;12.60;9.70;;;2.20;99.90;;;;;;5054093;28;20479;-53
2023/01/18 00:36:39;;;;;;;11.03;9.73;;;2.10;99.90;;;;;;5053636;28;20450;-52
2023/01/18 00:39:08;;;;;;;12.53;10.43;;;2.00;99.90;;;;;;5054048;28;20480;-52
2023/01/18 00:43:37;;;;;;;13.80;10.43;;;2.20;99.90;;;;;;5053959;28;20441;-55
2023/01/18 00:44:21;;;;;;;12.63;9.90;;;2.20;99.90;;;;;;5053641;28;20458;-54
2023/01/18 00:46:49;;;;;;;13.10;10.60;;;2.20;99.90;;;;;;5053593;28;20532;-54
2023/01/18 00:49:16;;;;;;;12.97;10.43;;;2.30;99.90;;;;;;5053937;28;20457;-54
2023/01/18 00:51:43;;;;;;;14.37;11.40;;;2.50;99.90;;;;;;5053643;28;20445;-54
2023/01/18 00:54:11;;;;;;;12.87;10.13;;;2.40;99.90;;;;;;5053662;28;20480;-54
2023/01/18 00:56:38;;;;;;;11.07;9.93;;;2.30;99.90;;;;;;5053485;28;20444;-54
2023/01/18 00:59:05;;;;;;;11.03;9.93;;;2.00;99.90;;;;;;5053711;28;20508;-54
2023/01/18 01:01:32;;;;;;;15.60;10.67;;;1.90;99.90;;;;;;5053666;28;20453;-53
2023/01/18 01:06:44;;;;;;;11.60;10.47;;;2.00;99.90;;;;;;5053597;28;20761;-53
2023/01/18 01:09:15;;;;;;;11.10;9.70;;;2.30;99.90;;;;;;5052541;28;20986;-55
2023/01/18 01:12:31;;;;;;;15.00;11.30;;;2.30;99.90;;;;;;5053334;28;20436;-54
2023/01/18 01:28:15;;;;;;;13.73;11.53;;;1.90;99.90;;;;;;5053202;28;20876;-54
2023/01/18 01:30:43;;;;;;;14.20;12.10;;;1.90;99.90;;;;;;5053416;28;20444;-53
2023/01/18 01:33:10;;;;;;;16.43;13.70;;;2.00;99.90;;;;;;5052935;28;21047;-54
2023/01/18 01:35:37;;;;;;;15.07;12.53;;;2.10;99.90;;;;;;5053388;28;20442;-54
2023/01/18 01:38:05;;;;;;;14.27;10.47;;;2.00;99.90;;;;;;5052992;28;20484;-52
2023/01/18 01:40:33;;;;;;;13.20;11.23;;;2.20;99.90;;;;;;5053022;28;20452;-53
2023/01/18 01:43:00;;;;;;;14.53;10.73;;;2.10;99.90;;;;;;5052819;28;20470;-53
2023/01/18 01:45:31;;;;;;;14.07;10.67;;;2.20;99.90;;;;;;5053264;28;20449;-53
2023/01/18 01:47:59;;;;;;;13.77;9.70;;;2.20;99.90;;;;;;5052938;28;20478;-53
2023/01/18 01:50:31;;;;;;;12.87;10.23;;;2.10;99.90;;;;;;5052953;28;20962;-53
2023/01/18 01:52:58;;;;;;;13.73;11.03;;;1.90;99.90;;;;;;5052701;28;20472;-53
2023/01/18 01:55:29;;;;;;;13.10;11.70;;;2.00;99.90;;;;;;5053049;28;20473;-54
2023/01/18 01:58:00;;;;;;;10.23;9.23;;;1.80;99.90;;;;;;5053034;28;20463;-53
2023/01/18 02:00:28;;;;;;;13.70;11.37;;;1.90;99.90;;;;;;5052863;28;20436;-54
2023/01/18 02:03:00;;;;;;;10.17;8.73;;;2.00;99.90;;;;;;5052985;28;20465;-53
2023/01/18 02:05:29;;;;;;;11.73;10.50;;;1.80;99.90;;;;;;5053297;28;20763;-53
2023/01/18 02:08:00;;;;;;;11.83;9.73;;;1.80;99.90;;;;;;5052934;28;20540;-54
2023/01/18 02:10:27;;;;;;;9.67;8.63;;;1.90;99.90;;;;;;5052749;28;20430;-54
2023/01/18 02:12:58;;;;;;;12.47;11.20;;;1.80;99.90;;;;;;5052589;28;20469;-54
2023/01/18 02:15:33;;;;;;;13.33;10.87;;;1.80;99.90;;;;;;5052737;28;20441;-54
2023/01/18 02:18:10;;;;;;;11.27;9.93;;;1.90;99.90;;;;;;5052554;28;20911;-53
2023/01/18 02:21:09;;;;;;;16.10;12.17;;;1.80;99.90;;;;;;5053787;28;20444;-53
2023/01/18 02:24:04;;;;;;;13.80;10.47;;;1.90;99.90;;;;;;5056219;28;20831;-53
2023/01/18 02:27:00;;;;;;;13.23;10.37;;;1.70;99.90;;;;;;5056309;28;20433;-54
2023/01/18 02:30:05;;;;;;;15.90;11.63;;;1.60;99.90;;;;;;5056321;28;20425;-52
2023/01/18 02:32:50;;;;;;;11.37;9.97;;;1.80;99.90;;;;;;5049933;28;20476;-54
2023/01/18 02:35:25;;;;;;;13.13;11.20;;;1.60;99.90;;;;;;5056488;28;20429;-54
2023/01/18 02:38:06;;;;;;;13.93;10.63;;;1.70;99.90;;;;;;5056029;28;20916;-53
2023/01/18 02:40:43;;;;;;;14.77;12.13;;;1.60;99.90;;;;;;5056038;28;20914;-55
2023/01/18 02:48:46;;;;;;;16.27;13.20;;;2.00;99.90;;;;;;5055912;28;20409;-54
2023/01/18 02:51:13;;;;;;;15.23;13.10;;;1.80;99.90;;;;;;5056017;28;20936;-53
2023/01/18 02:53:43;;;;;;;14.93;12.30;;;1.90;99.90;;;;;;5055798;28;20492;-53
2023/01/18 02:56:14;;;;;;;13.27;10.33;;;1.90;99.90;;;;;;5056272;28;20524;-53
2023/01/18 02:58:45;;;;;;;16.53;12.07;;;1.70;99.90;;;;;;5055612;28;20461;-53
2023/01/18 03:01:21;;;;;;;13.00;11.27;;;1.60;99.90;;;;;;5055663;28;20436;-52
2023/01/18 03:03:51;;;;;;;13.67;10.33;;;1.50;99.90;;;;;;5055569;28;20464;-53
2023/01/18 03:06:23;;;;;;;17.00;10.90;;;1.40;99.90;;;;;;5055878;28;20437;-52
2023/01/18 03:08:53;;;;;;;12.83;10.73;;;1.40;99.90;;;;;;5055494;28;20504;-54
2023/01/18 03:11:28;;;;;;;13.90;11.10;;;1.50;99.90;;;;;;5055726;28;20433;-53
2023/01/18 03:14:05;;;;;;;15.83;11.33;;;1.70;99.90;;;;;;5055653;28;20461;-54
2023/01/18 03:16:54;;;;;;;13.20;11.70;;;1.70;99.90;;;;;;5055365;28;20438;-53
2023/01/18 03:22:11;;;;;;;16.23;11.77;;;1.70;99.90;;;;;;5055170;28;20471;-53
2023/01/18 03:24:40;;;;;;;14.93;11.20;;;1.70;99.90;;;;;;5055183;28;20556;-54
2023/01/18 03:35:27;;;;;;;16.00;11.93;;;1.90;99.90;;;;;;5055099;28;20919;-54
2023/01/18 03:37:56;;;;;;;11.90;10.40;;;2.00;99.90;;;;;;5054876;28;20536;-53
2023/01/18 03:40:27;;;;;;;14.73;11.20;;;1.70;99.90;;;;;;5054799;28;21003;-54
2023/01/18 03:43:05;;;;;;;13.27;11.53;;;1.60;99.90;;;;;;5055039;28;20544;-53
2023/01/18 03:45:36;;;;;;;12.97;11.57;;;1.60;99.90;;;;;;5055133;28;20430;-52
2023/01/18 03:48:07;;;;;;;14.73;11.30;;;1.60;99.90;;;;;;5055008;28;20784;-53
2023/01/18 03:50:43;;;;;;;15.27;11.60;;;1.70;99.90;;;;;;5055038;28;20436;-53
2023/01/18 03:53:14;;;;;;;15.57;11.97;;;1.70;99.90;;;;;;5054893;28;20560;-53
2023/01/18 03:55:45;;;;;;;15.83;12.50;;;1.80;99.90;;;;;;5054526;28;20491;-53
2023/01/18 03:58:15;;;;;;;14.57;11.40;;;1.90;99.90;;;;;;5054873;28;20504;-53
2023/01/18 04:00:42;;;;;;;15.30;12.67;;;2.00;99.90;;;;;;5054801;28;20475;-52
2023/01/18 04:03:11;;;;;;;14.70;11.40;;;1.90;99.90;;;;;;5054725;28;20536;-51
2023/01/18 04:05:38;;;;;;;16.77;12.37;;;1.90;99.90;;;;;;5054712;28;20441;-54
2023/01/18 04:08:06;;;;;;;14.17;12.13;;;2.00;99.90;;;;;;5054631;28;20452;-52
2023/01/18 04:10:33;;;;;;;17.80;12.77;;;1.90;99.90;;;;;;5054621;28;20536;-53
2023/01/18 04:13:00;;;;;;;14.30;11.87;;;1.80;99.90;;;;;;5054412;28;20932;-54
2023/01/18 04:15:28;;;;;;;12.93;10.73;;;1.80;99.90;;;;;;5054319;28;20438;-53
2023/01/18 04:17:55;;;;;;;13.63;12.23;;;1.60;99.90;;;;;;5054430;28;20445;-53
2023/01/18 04:20:23;;;;;;;14.60;12.20;;;1.60;99.90;;;;;;5054251;28;20568;-54
2023/01/18 04:22:55;;;;;;;17.43;13.57;;;1.70;99.90;;;;;;5054007;28;20552;-52
2023/01/18 04:25:22;;;;;;;14.60;11.63;;;1.60;99.90;;;;;;5054416;28;20476;-53
2023/01/18 04:27:49;;;;;;;12.77;11.07;;;1.50;99.90;;;;;;5053963;28;20511;-54
2023/01/18 04:30:17;;;;;;;16.90;13.63;;;1.60;99.90;;;;;;5054306;28;20473;-54
2023/01/18 04:32:45;;;;;;;16.63;12.30;;;1.70;99.90;;;;;;5053772;28;20481;-54
2023/01/18 04:35:12;;;;;;;12.57;11.23;;;1.60;99.90;;;;;;5054186;28;20450;-52
2023/01/18 04:37:41;;;;;;;16.07;12.70;;;1.80;99.90;;;;;;5053967;28;20461;-55
2023/01/18 04:40:10;;;;;;;18.37;14.17;;;1.60;99.90;;;;;;5054027;28;20481;-53
2023/01/18 04:42:37;;;;;;;15.73;12.17;;;1.50;99.90;;;;;;5053598;28;20453;-52
2023/01/18 04:45:05;;;;;;;15.83;10.97;;;1.70;99.90;;;;;;5054196;28;20783;-53
2023/01/18 04:47:32;;;;;;;17.37;13.90;;;1.70;99.90;;;;;;5053881;28;20449;-54
2023/01/18 04:49:59;;;;;;;13.70;11.50;;;1.70;99.90;;;;;;5053940;28;20449;-52
2023/01/18 04:52:30;;;;;;;14.53;10.77;;;1.70;99.90;;;;;;5053830;28;20904;-53
2023/01/18 04:54:59;;;;;;;11.70;10.53;;;1.90;99.90;;;;;;5053579;28;20526;-52
2023/01/18 04:57:26;;;;;;;12.90;11.23;;;1.90;99.90;;;;;;5053618;28;20462;-53
2023/01/18 04:59:53;;;;;;;12.00;10.60;;;1.80;99.90;;;;;;5053432;28;20488;-53
2023/01/18 05:02:20;;;;;;;11.67;10.57;;;1.90;99.90;;;;;;5053601;28;20449;-53
2023/01/18 05:04:47;;;;;;;13.23;11.83;;;1.70;99.90;;;;;;5053405;28;21009;-54
2023/01/18 05:07:15;;;;;;;12.50;10.10;;;1.80;99.90;;;;;;5053787;28;20540;-52
2023/01/18 05:09:42;;;;;;;11.00;9.80;;;1.80;99.90;;;;;;5053238;28;20468;-52
2023/01/18 05:12:10;;;;;;;11.13;10.10;;;1.70;99.90;;;;;;5053270;28;20456;-52
2023/01/18 05:14:37;;;;;;;12.33;9.13;;;1.60;99.90;;;;;;5053554;28;20469;-52
2023/01/18 05:17:06;;;;;;;10.70;9.23;;;1.60;99.90;;;;;;5053577;28;20786;-52
2023/01/18 05:19:33;;;;;;;11.17;9.63;;;1.60;99.90;;;;;;5053429;28;20477;-52
2023/01/18 05:22:00;;;;;;;11.83;9.47;;;1.70;99.90;;;;;;5053465;28;20451;-51
2023/01/18 05:24:27;;;;;;;9.63;8.73;;;1.70;99.90;;;;;;5053579;28;20487;-51
2023/01/18 05:26:55;;;;;;;9.00;7.27;;;1.70;99.90;;;;;;5053332;28;20453;-51
2023/01/18 05:29:24;;;;;;;8.37;6.70;;;1.60;99.90;;;;;;5053259;28;20448;-51
2023/01/18 05:31:52;;;;;;;7.90;7.10;;;1.50;99.90;;;;;;5053234;28;20445;-51
2023/01/18 05:34:19;;;;;;;7.23;6.63;;;1.50;99.90;;;;;;5053396;28;20546;-52
2023/01/18 05:36:47;;;;;;;6.63;6.03;;;1.60;99.90;;;;;;5053139;28;20947;-52
2023/01/18 05:39:14;;;;;;;17.00;9.87;;;1.70;99.90;;;;;;5053131;28;20481;-52
2023/01/18 05:41:41;;;;;;;9.43;7.80;;;1.50;99.90;;;;;;5052982;28;20453;-52
2023/01/18 05:44:09;;;;;;;10.97;7.80;;;1.50;99.90;;;;;;5052892;28;20469;-52
2023/01/18 05:46:38;;;;;;;6.37;5.87;;;1.50;99.90;;;;;;5053287;28;20439;-52
2023/01/18 05:49:05;;;;;;;6.80;6.00;;;1.50;99.90;;;;;;5052838;28;20476;-51
2023/01/18 05:51:32;;;;;;;6.87;6.03;;;1.30;99.90;;;;;;5053235;28;20529;-52
2023/01/18 05:54:00;;;;;;;10.93;7.50;;;1.40;99.90;;;;;;5052954;28;20477;-51
2023/01/18 05:56:27;;;;;;;11.73;6.57;;;1.50;99.90;;;;;;5055412;28;20437;-52
2023/01/18 05:58:54;;;;;;;7.17;6.57;;;1.50;99.90;;;;;;5056852;28;20543;-52
2023/01/18 06:01:21;;;;;;;7.30;6.60;;;1.60;99.90;;;;;;5056656;28;20791;-51
2023/01/18 06:03:50;;;;;;;7.20;6.50;;;1.50;99.90;;;;;;5056752;28;20475;-51
2023/01/18 06:06:17;;;;;;;9.70;7.27;;;1.60;99.90;;;;;;5057046;28;20445;-52
2023/01/18 06:08:45;;;;;;;6.83;6.23;;;1.50;99.90;;;;;;5056595;28;20449;-52
2023/01/18 06:11:12;;;;;;;6.80;5.80;;;1.70;99.90;;;;;;5056709;28;20476;-52
2023/01/18 06:13:39;;;;;;;7.20;6.60;;;1.60;99.90;;;;;;5055994;28;20560;-52
2023/01/18 06:16:07;;;;;;;7.97;7.17;;;1.50;99.90;;;;;;5056194;28;20809;-52
2023/01/18 06:18:34;;;;;;;7.50;6.70;;;1.40;99.90;;;;;;5056155;28;20460;-52
2023/01/18 06:21:03;;;;;;;6.87;6.27;;;1.40;99.90;;;;;;5056429;28;20791;-52
2023/01/18 06:23:31;;;;;;;7.43;6.73;;;1.40;99.90;;;;;;5056309;28;20473;-52
2023/01/18 06:25:58;;;;;;;9.63;7.07;;;1.50;99.90;;;;;;5056165;28;20452;-52
2023/01/18 06:28:25;;;;;;;6.00;5.40;;;1.40;99.90;;;;;;5056130;28;20452;-52
2023/01/18 06:30:53;;;;;;;6.07;5.30;;;1.40;99.90;;;;;;5056266;28;20457;-52
2023/01/18 06:33:21;;;;;;;7.07;5.80;;;1.20;99.90;;;;;;5055720;28;20563;-52
2023/01/18 06:35:48;;;;;;;6.70;6.10;;;1.30;99.90;;;;;;5055910;28;20484;-52
2023/01/18 06:38:16;;;;;;;8.40;7.50;;;1.40;99.90;;;;;;5055968;28;20445;-52
2023/01/18 06:40:43;;;;;;;7.30;5.70;;;1.40;99.90;;;;;;5056069;28;20843;-52
2023/01/18 06:43:12;;;;;;;9.90;8.27;;;1.30;99.90;;;;;;5055844;28;20469;-58
2023/01/18 06:45:40;;;;;;;6.43;5.80;;;1.30;99.90;;;;;;5055696;28;20471;-52
2023/01/18 06:48:07;;;;;;;8.20;7.40;;;1.40;99.90;;;;;;5056040;28;20473;-53
2023/01/18 06:50:34;;;;;;;6.97;6.33;;;1.30;99.90;;;;;;5055776;28;20449;-52
2023/01/18 06:53:01;;;;;;;7.80;6.87;;;1.40;99.90;;;;;;5055643;28;20476;-54
2023/01/18 06:55:30;;;;;;;8.37;7.07;;;1.40;99.90;;;;;;5055362;28;20801;-54
2023/01/18 06:57:57;;;;;;;7.20;6.50;;;1.40;99.90;;;;;;5055984;28;20473;-54
2023/01/18 07:00:24;;;;;;;11.00;8.83;;;1.40;99.90;;;;;;5055291;28;20484;-53
2023/01/18 07:02:51;;;;;;;9.33;8.10;;;1.30;99.90;;;;;;5055515;28;20450;-54
2023/01/18 07:14:39;;;;;;;10.03;9.03;;;1.10;99.90;;;;;;5045474;28;20825;-54
2023/01/18 07:17:12;;;;;;;9.30;8.33;;;1.20;99.90;;;;;;5055296;28;20464;-54
2023/01/18 07:19:49;;;;;;;9.80;8.90;;;1.20;99.90;;;;;;5037900;28;20492;-53
2023/01/18 07:25:12;;;;;;;14.10;8.83;;;1.10;99.90;;;;;;5067530;28;20437;-53
2023/01/18 07:27:42;;;;;;;9.00;7.93;;;1.10;99.90;;;;;;5053649;28;20448;-53
2023/01/18 07:30:32;;;;;;;10.40;9.17;;;1.00;99.90;;;;;;5053572;28;20797;-53
2023/01/18 07:33:10;;;;;;;9.40;7.97;;;1.00;99.90;;;;;;5053418;28;20461;-54
2023/01/18 07:35:40;;;;;;;10.57;7.73;;;1.10;99.90;;;;;;5053566;28;20964;-54
2023/01/18 07:38:23;;;;;;;10.80;9.57;;;1.10;99.90;;;;;;5070001;28;20811;-54
2023/01/18 07:41:01;;;;;;;12.10;8.97;;;1.00;99.90;;;;;;5054200;28;20481;-51
2023/01/18 07:43:34;;;;;;;9.70;8.73;;;1.20;99.90;;;;;;5053552;28;20501;-52
2023/01/18 07:46:15;;;;;;;10.50;9.40;;;1.20;99.90;;;;;;5054696;28;20426;-54
2023/01/18 07:48:53;;;;;;;9.60;8.27;;;1.10;99.90;;;;;;5054501;28;20429;-54
2023/01/18 07:51:27;;;;;;;10.10;8.53;;;1.10;99.90;;;;;;5053044;28;20805;-53
2023/01/18 07:54:00;;;;;;;10.57;9.20;;;1.30;99.90;;;;;;5053669;28;20485;-53
2023/01/18 07:56:31;;;;;;;11.57;10.43;;;1.10;99.90;;;;;;5048071;28;20484;-53
2023/01/18 07:59:04;;;;;;;9.63;8.33;;;1.10;99.90;;;;;;5053184;28;20491;-53
2023/01/18 08:01:39;;;;;;;12.97;10.80;;;1.00;99.90;;;;;;5053752;28;20481;-53
2023/01/18 08:07:03;;;;;;;10.57;9.40;;;1.20;99.90;;;;;;5053732;28;20538;-53
2023/01/18 08:12:57;;;;;;;11.27;9.57;;;1.10;99.90;;;;;;5053606;28;20465;-51
2023/01/18 08:18:17;;;;;;;9.87;8.93;;;1.10;99.90;;;;;;5053333;28;20453;-51
2023/01/18 08:20:46;;;;;;;11.10;9.63;;;1.00;99.90;;;;;;5053437;28;20982;-51
2023/01/18 08:23:14;;;;;;;13.10;10.47;;;1.00;99.90;;;;;;5053726;28;21013;-51
2023/01/18 08:25:42;;;;;;;11.13;10.03;;;1.00;99.90;;;;;;5053512;28;20457;-50
2023/01/18 08:28:10;;;;;;;11.57;10.37;;;1.00;99.90;;;;;;5053947;28;20445;-54
2023/01/18 08:30:39;;;;;;;18.23;10.77;;;0.90;99.90;;;;;;5053736;28;20481;-51
2023/01/18 08:33:09;;;;;;;9.27;8.37;;;0.90;99.90;;;;;;5053440;28;20870;-51
2023/01/18 08:35:41;;;;;;;9.90;8.90;;;0.90;99.90;;;;;;5053022;28;20449;-52
2023/01/18 08:38:09;;;;;;;10.73;9.63;;;0.90;99.90;;;;;;5053274;28;20449;-52
2023/01/18 08:40:37;;;;;;;11.63;9.10;;;0.90;99.90;;;;;;5052900;28;20485;-51
2023/01/18 08:43:05;;;;;;;10.23;8.60;;;0.90;99.90;;;;;;5053031;28;20465;-51
2023/01/18 08:45:33;;;;;;;10.33;9.30;;;1.10;99.90;;;;;;5053058;28;20931;-52
2023/01/18 08:48:02;;;;;;;10.50;9.50;;;1.00;99.90;;;;;;5053379;28;20485;-51
2023/01/18 08:50:32;;;;;;;9.80;8.80;;;0.90;99.90;;;;;;5053047;28;20445;-52
2023/01/18 08:53:01;;;;;;;9.77;8.50;;;0.90;99.90;;;;;;5053346;28;20539;-51
2023/01/18 08:55:29;;;;;;;8.97;8.17;;;1.00;99.90;;;;;;5052941;28;20503;-52
2023/01/18 08:57:57;;;;;;;9.87;8.87;;;1.10;99.90;;;;;;5053454;28;20809;-51
2023/01/18 09:00:27;;;;;;;11.07;9.70;;;1.10;99.90;;;;;;5053267;28;20848;-51
2023/01/18 09:02:54;;;;;;;9.80;8.90;;;1.20;99.90;;;;;;5052947;28;20469;-51
2023/01/18 09:05:22;;;;;;;9.33;8.07;;;1.20;99.90;;;;;;5052853;28;20445;-54
2023/01/18 09:07:50;;;;;;;12.20;8.67;;;1.10;99.90;;;;;;5053429;28;20838;-51
2023/01/18 09:10:18;;;;;;;10.30;9.20;;;1.10;99.90;;;;;;5052900;28;20488;-51
2023/01/18 09:12:45;;;;;;;11.93;9.57;;;1.10;99.90;;;;;;5052721;28;20908;-51
2023/01/18 09:15:12;;;;;;;10.43;8.63;;;1.30;99.90;;;;;;5052922;28;20449;-55
2023/01/18 09:17:40;;;;;;;8.73;7.70;;;1.30;99.90;;;;;;5052954;28;20453;-53
2023/01/18 09:20:10;;;;;;;9.30;8.40;;;1.20;99.90;;;;;;5052969;28;20503;-53
2023/01/18 09:22:38;;;;;;;9.70;8.80;;;1.30;99.90;;;;;;5052768;28;20457;-53
2023/01/18 09:25:07;;;;;;;10.93;7.87;;;1.30;99.90;;;;;;5053128;28;20960;-53
2023/01/18 09:27:34;;;;;;;7.97;7.17;;;1.50;99.90;;;;;;5052771;28;20455;-53
2023/01/18 09:30:02;;;;;;;8.90;8.00;;;1.30;99.90;;;;;;5052870;28;20873;-52
2023/01/18 09:32:29;;;;;;;9.30;7.90;;;1.20;99.90;;;;;;5057172;28;20534;-52
2023/01/18 09:34:57;;;;;;;9.00;7.97;;;1.20;99.90;;;;;;5057041;28;20473;-51
2023/01/18 09:37:24;;;;;;;8.37;7.53;;;1.20;99.90;;;;;;5057122;28;20445;-51
2023/01/18 09:39:51;;;;;;;7.87;7.00;;;1.20;99.90;;;;;;5056640;28;20453;-51
2023/01/18 09:42:22;;;;;;;10.83;7.00;;;1.30;99.90;;;;;;5056562;28;20543;-51
2023/01/18 09:44:52;;;;;;;10.10;7.70;;;1.30;99.90;;;;;;5056530;28;20991;-51
2023/01/18 09:47:23;;;;;;;9.00;8.17;;;1.40;99.90;;;;;;5056923;28;20445;-51
2023/01/18 09:49:55;;;;;;;11.20;8.77;;;1.30;99.90;;;;;;5056895;28;20459;-51
2023/01/18 09:52:36;;;;;;;9.00;8.10;;;1.40;99.90;;;;;;5056754;28;20432;-51
2023/01/18 09:55:14;;;;;;;9.70;8.70;;;1.40;99.90;;;;;;5056470;28;20526;-51
2023/01/18 09:57:59;;;;;;;12.57;8.33;;;1.10;99.90;;;;;;5056870;28;20433;-51
2023/01/18 10:00:30;;;;;;;9.07;7.80;;;1.20;99.90;;;;;;5056741;28;20538;-51
2023/01/18 10:03:00;;;;;;;10.77;9.70;;;1.30;99.90;;;;;;5056327;28;20560;-51
2023/01/18 10:05:32;;;;;;;10.33;7.57;;;1.40;99.90;;;;;;5056517;28;20429;-51
2023/01/18 10:08:04;;;;;;;9.07;8.17;;;1.20;99.90;;;;;;5056364;28;20516;-51
2023/01/18 10:10:36;;;;;;;13.33;9.40;;;1.30;99.90;;;;;;5056398;28;20433;-51
2023/01/18 10:13:36;;;;;;;11.07;8.20;;;1.40;99.90;;;;;;5055687;28;20538;-51
2023/01/18 10:16:04;;;;;;;8.23;7.43;;;1.40;99.90;;;;;;5055702;28;20457;-51
2023/01/18 10:18:31;;;;;;;7.57;6.83;;;1.30;99.90;;;;;;5055821;28;20453;-51
2023/01/18 10:21:03;;;;;;;9.37;8.00;;;1.20;99.90;;;;;;5055948;28;20477;-51
2023/01/18 10:23:34;;;;;;;10.20;8.40;;;1.20;99.90;;;;;;5055588;28;20519;-51
2023/01/18 10:26:06;;;;;;;8.30;7.40;;;1.40;99.90;;;;;;5055668;28;20429;-51
2023/01/18 10:28:44;;;;;;;10.63;7.17;;;1.60;99.90;;;;;;5055287;28;20947;-51
2023/01/18 10:31:30;;;;;;;9.93;8.87;;;1.60;99.90;;;;;;5055905;28;20434;-53
2023/01/18 10:34:04;;;;;;;8.57;7.67;;;1.90;99.90;;;;;;5055754;28;20457;-52
2023/01/18 10:36:46;;;;;;;12.73;8.10;;;2.00;99.90;;;;;;5055711;28;20875;-54
2023/01/18 10:39:28;;;;;;;11.00;9.30;;;2.20;99.90;;;;;;5055828;28;20436;-54
2023/01/18 10:41:59;;;;;;;9.20;8.23;;;2.10;99.90;;;;;;5055483;28;20548;-52
2023/01/18 10:44:28;;;;;;;13.50;9.37;;;2.30;99.90;;;;;;5055460;28;20522;-52
2023/01/18 10:47:00;;;;;;;10.13;9.10;;;2.20;99.90;;;;;;5055488;28;20452;-51
2023/01/18 10:49:36;;;;;;;10.77;8.93;;;2.10;99.90;;;;;;5055740;28;20481;-52
2023/01/18 10:52:24;;;;;;;8.57;7.87;;;2.10;99.90;;;;;;5055649;28;20528;-52
2023/01/18 10:54:54;;;;;;;8.40;7.60;;;2.00;99.90;;;;;;5055132;28;20980;-51
2023/01/18 10:57:26;;;;;;;12.40;7.63;;;1.90;99.90;;;;;;5055267;28;20430;-52
2023/01/18 10:59:56;;;;;;;8.93;7.93;;;1.80;99.90;;;;;;5055512;28;20434;-51
2023/01/18 11:02:28;;;;;;;10.30;8.20;;;1.80;99.90;;;;;;5055279;28;20480;-51
2023/01/18 11:05:00;;;;;;;11.50;8.00;;;1.80;99.90;;;;;;5055089;28;20984;-51
2023/01/18 11:07:29;;;;;;;10.70;8.50;;;1.90;99.90;;;;;;5055718;28;20426;-52
2023/01/18 11:09:58;;;;;;;8.80;7.90;;;2.00;99.90;;;;;;5054955;28;20940;-51
2023/01/18 11:12:36;;;;;;;12.70;8.63;;;2.00;99.90;;;;;;5055407;28;20458;-52
2023/01/18 11:15:28;;;;;;;13.77;8.73;;;2.30;99.90;;;;;;5054974;28;20524;-52
2023/01/18 11:18:10;;;;;;;9.07;7.93;;;2.10;99.90;;;;;;5055287;28;20437;-52
2023/01/18 11:20:49;;;;;;;9.27;8.17;;;2.20;99.90;;;;;;5055139;28;20504;-54
2023/01/18 11:23:19;;;;;;;6.93;6.23;;;2.30;99.90;;;;;;5055517;28;20476;-52
2023/01/18 11:25:59;;;;;;;10.13;8.40;;;2.20;99.90;;;;;;5055067;28;20437;-53
2023/01/18 11:28:28;;;;;;;7.23;6.40;;;2.20;99.90;;;;;;5055306;28;20777;-52
2023/01/18 11:31:00;;;;;;;11.20;8.57;;;2.20;99.90;;;;;;5055016;28;20454;-54
2023/01/18 11:33:29;;;;;;;9.43;7.23;;;2.20;99.90;;;;;;5054665;28;20555;-52
2023/01/18 11:35:59;;;;;;;9.33;7.87;;;2.20;99.90;;;;;;5054577;28;20449;-52
2023/01/18 11:38:29;;;;;;;8.47;7.20;;;2.30;99.90;;;;;;5054865;28;20457;-52
2023/01/18 11:41:18;;;;;;;8.47;6.50;;;2.30;99.90;;;;;;5054210;28;20429;-52
2023/01/18 11:44:04;;;;;;;7.63;6.40;;;1.90;99.90;;;;;;5051493;28;20477;-53
2023/01/18 11:46:40;;;;;;;7.77;6.97;;;2.00;99.90;;;;;;5054325;28;20961;-52
2023/01/18 11:49:29;;;;;;;7.53;6.83;;;1.90;99.90;;;;;;5054226;28;20429;-52
2023/01/18 11:52:01;;;;;;;7.83;7.07;;;2.00;99.90;;;;;;5054508;28;20449;-52
2023/01/18 11:54:36;;;;;;;8.77;7.20;;;2.10;99.90;;;;;;5053028;28;20488;-52
2023/01/18 11:57:06;;;;;;;10.30;7.10;;;2.00;99.90;;;;;;5054056;28;20425;-52
2023/01/18 11:59:36;;;;;;;8.40;6.50;;;2.20;99.90;;;;;;5053976;28;20449;-52
2023/01/18 12:02:38;;;;;;;6.67;6.00;;;2.20;99.90;;;;;;5054424;28;20480;-52
2023/01/18 12:05:24;;;;;;;6.27;5.20;;;2.30;99.90;;;;;;5054333;28;20429;-52
2023/01/18 12:08:00;;;;;;;5.60;5.10;;;2.40;99.90;;;;;;5053759;28;20888;-52
2023/01/18 12:10:33;;;;;;;6.30;5.70;;;2.10;99.90;;;;;;5053864;28;20429;-52
2023/01/18 12:13:28;;;;;;;8.50;7.03;;;2.10;99.90;;;;;;5054128;28;20462;-53
2023/01/18 12:16:11;;;;;;;6.40;5.80;;;2.30;99.90;;;;;;5053918;28;20782;-52
2023/01/18 12:19:16;;;;;;;6.20;5.60;;;2.40;99.90;;;;;;5053986;28;20437;-52
2023/01/18 12:21:58;;;;;;;9.70;5.90;;;2.20;99.90;;;;;;5047155;28;20566;-52
2023/01/18 12:24:42;;;;;;;6.73;5.80;;;2.20;99.90;;;;;;5053168;28;20814;-52
2023/01/18 12:27:20;;;;;;;8.07;6.87;;;2.30;99.90;;;;;;5054028;28;20516;-52
2023/01/18 12:30:03;;;;;;;9.30;6.80;;;2.30;99.90;;;;;;5053924;28;20479;-52
2023/01/18 12:33:12;;;;;;;6.60;4.80;;;2.40;99.90;;;;;;5053399;28;20517;-52
2023/01/18 12:35:58;;;;;;;8.33;6.30;;;2.40;99.90;;;;;;5037940;28;20461;-52
2023/01/18 12:38:28;;;;;;;9.60;6.93;;;2.40;99.90;;;;;;5053666;28;20441;-52
2023/01/18 12:41:19;;;;;;;6.53;5.67;;;2.20;99.90;;;;;;5053807;28;20441;-52
2023/01/18 12:44:04;;;;;;;12.13;5.70;;;2.20;99.90;;;;;;5053266;28;20469;-52
2023/01/18 12:46:37;;;;;;;7.10;6.00;;;2.30;99.90;;;;;;5053348;28;20868;-53
2023/01/18 12:49:16;;;;;;;9.10;6.60;;;2.30;99.90;;;;;;5053635;28;20460;-51
2023/01/18 12:51:47;;;;;;;10.63;9.60;;;2.20;99.90;;;;;;5053259;28;20910;-53
2023/01/18 12:54:21;;;;;;;7.63;6.17;;;2.20;99.90;;;;;;5052694;28;20516;-52
2023/01/18 12:56:52;;;;;;;12.63;7.53;;;2.10;99.90;;;;;;5053687;28;20444;-52
2023/01/18 12:59:22;;;;;;;6.33;5.73;;;2.10;99.90;;;;;;5053503;28;20434;-52
2023/01/18 13:01:59;;;;;;;6.07;5.47;;;2.20;99.90;;;;;;5053286;28;20659;-53
2023/01/18 13:04:31;;;;;;;7.77;6.67;;;2.20;99.90;;;;;;5053343;28;20473;-51
2023/01/18 13:07:06;;;;;;;6.83;5.73;;;2.20;99.90;;;;;;5053027;28;20489;-51
2023/01/18 13:09:39;;;;;;;7.43;4.73;;;2.10;99.90;;;;;;5053524;28;20475;-51
2023/01/18 13:12:07;;;;;;;8.60;6.60;;;2.20;99.90;;;;;;5053007;28;20431;-51
2023/01/18 13:14:40;;;;;;;7.60;5.77;;;2.40;99.90;;;;;;5053211;28;20497;-51
2023/01/18 13:17:13;;;;;;;6.13;5.53;;;2.60;99.90;;;;;;5052994;28;20440;-51
2023/01/18 13:19:43;;;;;;;6.00;5.40;;;2.40;99.90;;;;;;5052835;28;20912;-51
2023/01/18 13:22:22;;;;;;;6.23;5.40;;;2.60;99.90;;;;;;5053516;28;20484;-51
2023/01/18 13:25:09;;;;;;;9.30;5.40;;;2.60;99.90;;;;;;5053041;28;20475;-51
2023/01/18 13:27:37;;;;;;;7.83;5.10;;;2.40;99.90;;;;;;5053111;28;20503;-52
2023/01/18 13:30:08;;;;;;;6.10;5.50;;;2.50;99.90;;;;;;5052953;28;20498;-52
2023/01/18 13:32:37;;;;;;;6.70;5.53;;;2.50;99.90;;;;;;5052702;28;20445;-52
2023/01/18 13:35:15;;;;;;;8.37;5.50;;;2.40;99.90;;;;;;5052767;28;20445;-52
2023/01/18 13:37:48;;;;;;;7.40;5.17;;;2.30;99.90;;;;;;5052891;28;20437;-52
2023/01/18 13:40:23;;;;;;;13.57;6.07;;;2.40;99.90;;;;;;5053016;28;20425;-52
2023/01/18 13:42:51;;;;;;;5.07;4.67;;;2.60;99.90;;;;;;5052852;28;20897;-51
2023/01/18 13:45:20;;;;;;;7.30;6.00;;;2.40;99.90;;;;;;5052891;28;20445;-52
2023/01/18 13:47:53;;;;;;;6.53;5.40;;;2.40;99.90;;;;;;5053090;28;20461;-52
2023/01/18 13:50:41;;;;;;;5.90;4.83;;;2.30;99.90;;;;;;5053164;28;20426;-52
2023/01/18 13:53:47;;;;;;;7.10;4.47;;;2.40;99.90;;;;;;5052803;28;20484;-52
2023/01/18 13:56:36;;;;;;;5.57;4.90;;;2.20;99.90;;;;;;5051653;28;20534;-52
2023/01/18 13:59:22;;;;;;;7.23;5.17;;;2.40;99.90;;;;;;5052776;28;20481;-52
2023/01/18 14:01:51;;;;;;;7.00;5.30;;;2.30;99.90;;;;;;5052602;28;20523;-51
2023/01/18 14:04:36;;;;;;;6.53;5.40;;;2.20;99.90;;;;;;5052754;28;20469;-52
2023/01/18 14:07:07;;;;;;;6.23;5.63;;;2.10;99.90;;;;;;5052553;28;20436;-52
2023/01/18 14:09:42;;;;;;;5.60;5.00;;;2.30;99.90;;;;;;5052754;28;20517;-52